createdAt,value
2023-06-06T00:01:55.432Z,21.54
2023-06-06T00:04:22.044Z,21.56
2023-06-06T00:06:48.685Z,21.56
2023-06-06T00:09:15.159Z,21.50
2023-06-06T00:11:41.670Z,21.54
2023-06-06T00:14:08.136Z,21.60
2023-06-06T00:16:34.778Z,21.59
2023-06-06T00:19:01.331Z,21.48
2023-06-06T00:21:27.811Z,21.48
2023-06-06T00:23:54.262Z,21.50
2023-06-06T00:26:20.750Z,21.52
2023-06-06T00:28:47.213Z,21.50
2023-06-06T00:31:13.703Z,21.35
2023-06-06T00:33:40.208Z,21.27
2023-06-06T00:36:06.755Z,21.22
2023-06-06T00:38:33.212Z,21.23
2023-06-06T00:40:59.648Z,21.25
2023-06-06T00:43:26.095Z,21.26
2023-06-06T00:45:52.585Z,21.30
2023-06-06T00:48:19.087Z,21.30
2023-06-06T00:50:45.537Z,21.32
2023-06-06T00:53:12.023Z,21.25
2023-06-06T00:55:38.483Z,21.23
2023-06-06T00:58:04.951Z,21.19
2023-06-06T01:00:31.413Z,21.17
2023-06-06T01:02:57.969Z,21.13
2023-06-06T01:05:24.505Z,21.12
2023-06-06T01:07:50.982Z,21.14
2023-06-06T01:10:17.439Z,21.13
2023-06-06T01:12:43.909Z,21.17
2023-06-06T01:15:10.400Z,21.16
2023-06-06T01:17:36.918Z,21.14
2023-06-06T01:20:03.445Z,21.08
2023-06-06T01:22:29.917Z,20.86
2023-06-06T01:24:56.380Z,20.89
2023-06-06T01:27:22.871Z,20.85
2023-06-06T01:29:49.345Z,20.68
2023-06-06T01:32:15.785Z,20.45
2023-06-06T01:34:42.268Z,20.31
2023-06-06T01:37:08.738Z,20.29
2023-06-06T01:39:35.206Z,20.27
2023-06-06T01:42:01.671Z,20.25
2023-06-06T01:44:28.121Z,20.21
2023-06-06T01:46:54.628Z,20.18
2023-06-06T01:49:21.109Z,20.06
2023-06-06T01:51:47.625Z,19.89
2023-06-06T01:54:14.149Z,19.93
2023-06-06T01:56:40.616Z,19.99
2023-06-06T01:59:07.082Z,20.10
2023-06-06T02:01:33.570Z,20.19
2023-06-06T02:04:00.099Z,20.09
2023-06-06T02:06:26.640Z,20.12
2023-06-06T02:08:53.102Z,20.09
2023-06-06T02:11:19.601Z,20.10
2023-06-06T02:13:46.040Z,20.03
2023-06-06T02:16:12.674Z,20.06
2023-06-06T02:18:39.166Z,19.96
2023-06-06T02:21:05.629Z,19.72
2023-06-06T02:23:32.130Z,19.60
2023-06-06T02:25:58.668Z,19.70
2023-06-06T02:28:25.145Z,19.73
2023-06-06T02:30:51.737Z,19.75
2023-06-06T02:33:18.239Z,19.85
2023-06-06T02:35:44.769Z,19.73
2023-06-06T02:38:11.233Z,19.79
2023-06-06T02:40:37.713Z,19.85
2023-06-06T02:43:04.202Z,19.91
2023-06-06T02:45:30.699Z,19.94
2023-06-06T02:47:57.214Z,19.96
2023-06-06T02:50:23.729Z,19.98
2023-06-06T02:52:50.214Z,19.93
2023-06-06T02:55:16.700Z,19.77
2023-06-06T02:57:43.147Z,19.79
2023-06-06T03:00:09.770Z,19.82
2023-06-06T03:02:36.597Z,19.78
2023-06-06T03:05:03.161Z,19.82
2023-06-06T03:07:29.669Z,19.84
2023-06-06T03:09:56.111Z,19.90
2023-06-06T03:12:22.600Z,19.91
2023-06-06T03:14:56.931Z,19.94
2023-06-06T03:17:24.335Z,19.87
2023-06-06T03:19:50.784Z,19.83
2023-06-06T03:22:17.254Z,19.82
2023-06-06T03:24:43.727Z,19.72
2023-06-06T03:27:10.178Z,19.68
2023-06-06T03:29:36.646Z,19.66
2023-06-06T03:32:03.201Z,19.62
2023-06-06T03:34:29.857Z,19.56
2023-06-06T03:36:56.313Z,19.52
2023-06-06T03:39:22.768Z,19.36
2023-06-06T03:41:49.376Z,19.44
2023-06-06T03:44:15.836Z,19.22
2023-06-06T03:46:42.335Z,19.25
2023-06-06T03:49:08.831Z,19.16
2023-06-06T03:51:35.321Z,19.15
2023-06-06T03:54:01.842Z,19.13
2023-06-06T03:56:28.278Z,19.06
2023-06-06T03:58:54.745Z,19.04
2023-06-06T04:01:21.232Z,19.08
2023-06-06T04:03:47.758Z,19.09
2023-06-06T04:06:14.346Z,19.03
2023-06-06T04:08:41.013Z,19.15
2023-06-06T04:11:07.523Z,19.19
2023-06-06T04:13:34.093Z,19.19
2023-06-06T04:16:00.611Z,19.19
2023-06-06T04:18:27.196Z,19.26
2023-06-06T04:20:53.872Z,19.33
2023-06-06T04:23:20.364Z,19.42
2023-06-06T04:25:46.982Z,19.47
2023-06-06T04:28:13.465Z,19.40
2023-06-06T04:30:39.928Z,19.26
2023-06-06T04:33:06.533Z,19.26
2023-06-06T04:35:33.076Z,19.19
2023-06-06T04:37:59.579Z,19.26
2023-06-06T04:40:26.060Z,19.25
2023-06-06T04:42:52.514Z,18.97
2023-06-06T04:45:18.983Z,19.08
2023-06-06T04:47:45.546Z,19.07
2023-06-06T04:50:12.097Z,19.04
2023-06-06T04:52:38.587Z,18.98
2023-06-06T04:55:05.148Z,18.99
2023-06-06T04:57:31.656Z,19.00
2023-06-06T04:59:58.209Z,19.11
2023-06-06T05:02:24.756Z,19.25
2023-06-06T05:04:51.657Z,19.27
2023-06-06T05:07:18.143Z,19.23
2023-06-06T05:09:44.613Z,19.35
2023-06-06T05:12:11.048Z,19.69
2023-06-06T05:14:37.543Z,19.83
2023-06-06T05:17:04.005Z,19.98
2023-06-06T05:19:30.505Z,19.99
2023-06-06T05:21:58.163Z,19.48
2023-06-06T05:24:24.688Z,19.30
2023-06-06T05:26:51.193Z,19.43
2023-06-06T05:29:17.663Z,19.81
2023-06-06T05:31:44.137Z,20.16
2023-06-06T05:34:10.578Z,20.35
2023-06-06T05:36:37.083Z,20.57
2023-06-06T05:39:03.526Z,20.55
2023-06-06T05:41:30.024Z,20.70
2023-06-06T05:43:56.503Z,20.54
2023-06-06T05:46:23.058Z,20.01
2023-06-06T05:48:49.632Z,19.82
2023-06-06T05:51:16.374Z,19.90
2023-06-06T05:53:43.010Z,20.06
2023-06-06T05:56:09.485Z,19.86
2023-06-06T05:58:36.094Z,19.75
2023-06-06T06:01:02.563Z,19.98
2023-06-06T06:03:29.103Z,20.20
2023-06-06T06:05:55.650Z,20.36
2023-06-06T06:08:22.172Z,20.52
2023-06-06T06:10:48.640Z,20.68
2023-06-06T06:13:15.119Z,20.74
2023-06-06T06:15:41.578Z,20.55
2023-06-06T06:18:08.100Z,20.68
2023-06-06T06:20:34.623Z,20.85
2023-06-06T06:23:01.088Z,20.95
2023-06-06T06:25:27.725Z,20.98
2023-06-06T06:27:54.194Z,20.64
2023-06-06T06:30:20.643Z,20.34
2023-06-06T06:32:47.149Z,20.23
2023-06-06T06:35:13.641Z,20.23
2023-06-06T06:37:40.112Z,20.15
2023-06-06T06:40:06.569Z,20.01
2023-06-06T06:42:33.071Z,19.84
2023-06-06T06:44:59.526Z,19.84
2023-06-06T06:47:26.006Z,19.77
2023-06-06T06:49:52.510Z,19.79
2023-06-06T06:52:18.963Z,19.98
2023-06-06T06:54:45.477Z,19.66
2023-06-06T06:57:12.026Z,19.83
2023-06-06T06:59:38.524Z,19.95
2023-06-06T07:02:04.986Z,19.65
2023-06-06T07:04:31.473Z,19.61
2023-06-06T07:06:57.944Z,19.78
2023-06-06T07:09:24.406Z,20.04
2023-06-06T07:11:50.870Z,20.04
2023-06-06T07:14:17.334Z,19.99
2023-06-06T07:16:43.805Z,20.06
2023-06-06T07:19:10.242Z,20.21
2023-06-06T07:21:36.715Z,20.00
2023-06-06T07:24:03.224Z,20.15
2023-06-06T07:26:29.713Z,20.49
2023-06-06T07:28:56.172Z,20.83
2023-06-06T07:31:22.704Z,21.14
2023-06-06T07:33:49.208Z,21.42
2023-06-06T07:36:15.700Z,21.20
2023-06-06T07:38:42.153Z,21.36
2023-06-06T07:41:08.672Z,21.33
2023-06-06T07:43:35.253Z,21.38
2023-06-06T07:46:01.713Z,21.64
2023-06-06T07:48:28.196Z,21.67
2023-06-06T07:50:54.632Z,21.72
2023-06-06T07:53:21.092Z,21.32
2023-06-06T07:55:47.541Z,21.28
2023-06-06T07:58:13.997Z,21.65
2023-06-06T08:00:40.506Z,20.98
2023-06-06T08:03:08.569Z,21.02
2023-06-06T08:05:35.482Z,21.10
2023-06-06T08:08:01.965Z,21.36
2023-06-06T08:10:28.540Z,21.60
2023-06-06T08:12:55.030Z,21.71
2023-06-06T08:15:21.558Z,21.67
2023-06-06T08:17:48.176Z,21.83
2023-06-06T08:20:14.778Z,21.70
2023-06-06T08:22:41.308Z,21.08
2023-06-06T08:25:07.838Z,20.80
2023-06-06T08:27:34.321Z,20.80
2023-06-06T08:30:00.796Z,20.78
2023-06-06T08:32:27.312Z,20.92
2023-06-06T08:34:53.803Z,21.28
2023-06-06T08:37:20.350Z,21.31
2023-06-06T08:39:46.829Z,20.88
2023-06-06T08:42:13.313Z,21.15
2023-06-06T08:44:39.771Z,21.38
2023-06-06T08:47:06.289Z,21.53
2023-06-06T08:49:32.773Z,21.52
2023-06-06T08:51:59.219Z,21.58
2023-06-06T08:54:25.686Z,21.44
2023-06-06T08:56:52.190Z,21.00
2023-06-06T08:59:18.718Z,21.44
2023-06-06T09:01:45.303Z,21.02
2023-06-06T09:04:12.024Z,20.95
2023-06-06T09:06:38.595Z,20.98
2023-06-06T09:09:05.063Z,21.38
2023-06-06T09:11:31.569Z,21.44
2023-06-06T09:13:58.034Z,21.70
2023-06-06T09:16:24.603Z,21.73
2023-06-06T09:18:51.189Z,21.33
2023-06-06T09:21:17.659Z,21.53
2023-06-06T09:23:44.170Z,21.87
2023-06-06T09:26:10.786Z,21.29
2023-06-06T09:28:37.412Z,21.54
2023-06-06T09:31:03.972Z,21.19
2023-06-06T09:33:30.610Z,21.32
2023-06-06T09:35:57.120Z,21.54
2023-06-06T09:38:23.741Z,21.46
2023-06-06T09:40:50.218Z,21.80
2023-06-06T09:43:16.872Z,21.81
2023-06-06T09:45:43.449Z,21.85
2023-06-06T09:48:10.000Z,21.73
2023-06-06T09:50:36.636Z,22.18
2023-06-06T09:53:03.089Z,22.33
2023-06-06T09:55:29.606Z,21.80
2023-06-06T09:57:56.090Z,21.61
2023-06-06T10:00:22.708Z,21.98
2023-06-06T10:02:49.539Z,22.26
2023-06-06T10:05:16.564Z,21.63
2023-06-06T10:07:43.402Z,21.89
2023-06-06T10:10:09.919Z,21.94
2023-06-06T10:12:36.854Z,22.17
2023-06-06T10:15:03.379Z,22.42
2023-06-06T10:17:29.854Z,22.39
2023-06-06T10:19:56.488Z,22.29
2023-06-06T10:22:23.413Z,22.50
2023-06-06T10:24:49.889Z,22.63
2023-06-06T10:27:16.411Z,22.23
2023-06-06T10:29:42.949Z,22.19
2023-06-06T10:32:09.454Z,22.33
2023-06-06T10:34:35.993Z,22.76
2023-06-06T10:37:02.435Z,22.80
2023-06-06T10:39:28.903Z,22.93
2023-06-06T10:41:55.416Z,22.84
2023-06-06T10:44:21.933Z,23.15
2023-06-06T10:46:50.512Z,23.26
2023-06-06T10:49:17.021Z,23.58
2023-06-06T10:51:43.506Z,23.51
2023-06-06T10:54:09.986Z,23.68
2023-06-06T10:56:36.527Z,23.82
2023-06-06T10:59:03.183Z,24.09
2023-06-06T11:01:29.708Z,24.29
2023-06-06T11:03:56.307Z,24.54
2023-06-06T11:06:22.916Z,24.12
2023-06-06T11:08:49.431Z,24.34
2023-06-06T11:11:15.924Z,24.62
2023-06-06T11:13:42.504Z,24.79
2023-06-06T11:16:09.156Z,24.95
2023-06-06T11:18:35.867Z,24.59
2023-06-06T11:21:02.325Z,24.91
2023-06-06T11:23:28.851Z,24.91
2023-06-06T11:25:55.316Z,24.68
2023-06-06T11:28:21.823Z,24.66
2023-06-06T11:30:48.311Z,24.51
2023-06-06T11:33:14.914Z,24.75
2023-06-06T11:35:41.583Z,24.78
2023-06-06T11:38:08.115Z,25.13
2023-06-06T11:40:34.656Z,25.16
2023-06-06T11:43:01.556Z,25.02
2023-06-06T11:45:28.276Z,24.69
2023-06-06T11:48:06.587Z,24.40
2023-06-06T11:50:40.732Z,24.83
2023-06-06T11:53:07.222Z,24.99
2023-06-06T11:55:33.712Z,25.45
2023-06-06T11:58:00.644Z,25.92
2023-06-06T12:00:27.111Z,26.60
2023-06-06T12:02:53.718Z,26.71
2023-06-06T12:05:20.406Z,26.88
2023-06-06T12:07:46.894Z,26.76
2023-06-06T12:10:13.413Z,26.17
2023-06-06T12:12:39.914Z,25.97
2023-06-06T12:15:06.473Z,26.61
2023-06-06T12:17:33.005Z,26.20
2023-06-06T12:19:59.535Z,26.69
2023-06-06T12:22:26.068Z,26.66
2023-06-06T12:24:52.501Z,26.82
2023-06-06T12:27:18.977Z,27.38
2023-06-06T12:29:45.420Z,27.28
2023-06-06T12:32:11.934Z,27.66
2023-06-06T12:34:38.438Z,27.94
2023-06-06T12:37:04.918Z,27.11
2023-06-06T12:39:31.384Z,27.07
2023-06-06T12:41:57.806Z,26.50
2023-06-06T12:44:24.273Z,26.47
2023-06-06T12:46:53.045Z,26.92
2023-06-06T12:49:19.528Z,27.16
2023-06-06T12:51:46.052Z,27.36
2023-06-06T12:54:12.535Z,27.58
2023-06-06T12:56:39.121Z,27.65
2023-06-06T12:59:05.672Z,27.75
2023-06-06T13:01:32.352Z,27.76
2023-06-06T13:03:59.130Z,28.18
2023-06-06T13:06:25.822Z,28.16
2023-06-06T13:08:52.317Z,28.51
2023-06-06T13:11:18.780Z,28.62
2023-06-06T13:13:45.262Z,28.59
2023-06-06T13:16:11.837Z,28.89
2023-06-06T13:18:38.370Z,29.41
2023-06-06T13:21:05.121Z,29.72
2023-06-06T13:23:31.759Z,29.86
2023-06-06T13:25:58.236Z,29.77
2023-06-06T13:28:24.729Z,29.85
2023-06-06T13:30:51.213Z,29.90
2023-06-06T13:33:17.945Z,29.50
2023-06-06T13:35:46.395Z,29.82
2023-06-06T13:38:13.047Z,30.03
2023-06-06T13:40:39.503Z,30.29
2023-06-06T13:43:05.985Z,30.36
2023-06-06T13:45:32.473Z,30.52
2023-06-06T13:47:58.973Z,30.60
2023-06-06T13:50:25.467Z,30.64
2023-06-06T13:52:51.925Z,30.63
2023-06-06T13:55:18.382Z,30.53
2023-06-06T13:57:44.839Z,30.61
2023-06-06T14:00:11.391Z,30.63
2023-06-06T14:02:37.987Z,30.80
2023-06-06T14:05:04.636Z,30.72
2023-06-06T14:07:31.279Z,30.82
2023-06-06T14:09:57.987Z,30.59
2023-06-06T14:12:24.454Z,30.56
2023-06-06T14:14:50.906Z,30.93
2023-06-06T14:17:17.766Z,31.28
2023-06-06T14:19:44.483Z,31.23
2023-06-06T14:22:11.326Z,31.08
2023-06-06T14:24:40.895Z,31.39
2023-06-06T14:27:07.508Z,31.13
2023-06-06T14:29:33.960Z,31.12
2023-06-06T14:32:00.450Z,31.07
2023-06-06T14:34:27.285Z,30.96
2023-06-06T14:36:54.776Z,30.83
2023-06-06T14:39:21.464Z,31.04
2023-06-06T14:41:47.924Z,31.15
2023-06-06T14:44:14.504Z,30.96
2023-06-06T14:46:41.062Z,30.73
2023-06-06T14:49:07.565Z,30.38
2023-06-06T14:51:34.095Z,30.04
2023-06-06T14:54:00.564Z,29.93
2023-06-06T14:56:27.017Z,29.80
2023-06-06T14:58:53.493Z,29.72
2023-06-06T15:01:19.991Z,29.53
2023-06-06T15:03:46.656Z,29.39
2023-06-06T15:06:13.275Z,29.18
2023-06-06T15:08:39.721Z,29.44
2023-06-06T15:11:06.217Z,29.76
2023-06-06T15:13:32.711Z,29.91
2023-06-06T15:15:59.344Z,29.96
2023-06-06T15:18:25.840Z,29.78
2023-06-06T15:20:52.374Z,29.63
2023-06-06T15:23:18.869Z,29.58
2023-06-06T15:25:45.336Z,29.37
2023-06-06T15:28:11.806Z,29.13
2023-06-06T15:30:39.267Z,29.09
2023-06-06T15:33:05.817Z,28.90
2023-06-06T15:35:32.425Z,28.85
2023-06-06T15:37:59.000Z,28.86
2023-06-06T15:40:28.343Z,28.64
2023-06-06T15:42:54.910Z,28.51
2023-06-06T15:45:22.455Z,28.48
2023-06-06T15:47:51.120Z,28.55
2023-06-06T15:50:17.618Z,28.71
2023-06-06T15:52:44.118Z,28.85
2023-06-06T15:55:10.638Z,28.74
2023-06-06T15:57:37.131Z,28.82
2023-06-06T16:00:03.804Z,28.90
2023-06-06T16:02:32.430Z,29.03
2023-06-06T16:04:59.151Z,28.53
2023-06-06T16:07:25.681Z,28.61
2023-06-06T16:09:53.208Z,28.33
2023-06-06T16:12:21.505Z,28.09
2023-06-06T16:14:47.991Z,27.75
2023-06-06T16:17:14.446Z,27.45
2023-06-06T16:19:41.023Z,27.39
2023-06-06T16:22:07.534Z,27.27
2023-06-06T16:24:34.009Z,27.06
2023-06-06T16:27:00.599Z,27.13
2023-06-06T16:29:27.174Z,27.04
2023-06-06T16:31:53.675Z,26.94
2023-06-06T16:34:20.190Z,26.56
2023-06-06T16:36:46.777Z,26.25
2023-06-06T16:39:14.182Z,26.25
2023-06-06T16:41:40.767Z,26.05
2023-06-06T16:44:07.279Z,25.76
2023-06-06T16:46:33.885Z,25.77
2023-06-06T16:49:00.372Z,25.86
2023-06-06T16:51:26.850Z,26.02
2023-06-06T16:53:53.460Z,25.99
2023-06-06T16:56:19.914Z,26.11
2023-06-06T16:58:46.512Z,26.04
2023-06-06T17:01:13.106Z,26.13
2023-06-06T17:03:39.719Z,26.14
2023-06-06T17:06:06.225Z,26.13
2023-06-06T17:08:32.708Z,26.12
2023-06-06T17:10:59.163Z,26.42
2023-06-06T17:13:25.707Z,26.43
2023-06-06T17:15:52.211Z,26.60
2023-06-06T17:18:18.717Z,26.60
2023-06-06T17:20:45.203Z,26.49
2023-06-06T17:23:11.637Z,26.47
2023-06-06T17:28:08.505Z,26.40
2023-06-06T17:30:35.013Z,26.46
2023-06-06T17:33:01.594Z,26.46
2023-06-06T17:35:28.220Z,26.42
2023-06-06T17:37:54.723Z,26.36
2023-06-06T17:40:21.238Z,26.33
2023-06-06T17:42:47.937Z,26.47
2023-06-06T17:45:16.698Z,26.30
2023-06-06T17:47:43.483Z,26.30
2023-06-06T17:50:09.983Z,26.31
2023-06-06T17:52:36.465Z,26.40
2023-06-06T17:55:02.962Z,26.38
2023-06-06T17:57:29.467Z,26.45
2023-06-06T17:59:56.093Z,26.28
2023-06-06T18:02:22.591Z,26.34
2023-06-06T18:04:49.127Z,26.37
2023-06-06T18:07:15.685Z,26.38
2023-06-06T18:09:42.148Z,26.34
2023-06-06T18:12:08.692Z,26.42
2023-06-06T18:14:35.148Z,26.35
2023-06-06T18:17:01.754Z,26.39
2023-06-06T18:19:29.609Z,26.30
2023-06-06T18:21:56.182Z,26.29
2023-06-06T18:24:22.627Z,26.27
2023-06-06T18:26:49.132Z,26.18
2023-06-06T18:29:15.609Z,26.18
2023-06-06T18:31:42.080Z,26.31
2023-06-06T18:34:08.609Z,26.15
2023-06-06T18:36:35.095Z,26.06
2023-06-06T18:39:01.635Z,26.05
2023-06-06T18:41:28.237Z,26.13
2023-06-06T18:43:54.713Z,25.87
2023-06-06T18:46:21.286Z,26.06
2023-06-06T18:48:47.801Z,26.01
2023-06-06T18:51:14.309Z,25.70
2023-06-06T18:53:40.800Z,25.57
2023-06-06T18:56:07.457Z,25.73
2023-06-06T18:58:33.972Z,25.62
2023-06-06T19:01:02.344Z,25.65
2023-06-06T19:03:28.901Z,25.56
2023-06-06T19:05:55.591Z,25.45
2023-06-06T19:08:22.366Z,25.21
2023-06-06T19:10:49.270Z,25.11
2023-06-06T19:13:15.953Z,25.08
2023-06-06T19:15:42.451Z,25.00
2023-06-06T19:18:19.302Z,24.95
2023-06-06T19:20:55.539Z,24.97
2023-06-06T19:23:22.161Z,24.92
2023-06-06T19:25:48.663Z,24.97
2023-06-06T19:28:15.195Z,24.90
2023-06-06T19:30:41.735Z,24.87
2023-06-06T19:33:08.323Z,24.65
2023-06-06T19:35:34.860Z,24.61
2023-06-06T19:38:01.450Z,24.49
2023-06-06T19:40:27.985Z,24.43
2023-06-06T19:42:54.540Z,24.51
2023-06-06T19:45:21.058Z,24.49
2023-06-06T19:47:47.665Z,24.56
2023-06-06T19:50:14.206Z,24.53
2023-06-06T19:52:40.751Z,24.58
2023-06-06T19:55:07.319Z,24.63
2023-06-06T19:57:33.953Z,24.52
2023-06-06T20:00:01.088Z,24.61
2023-06-06T20:02:27.900Z,24.40
2023-06-06T20:04:54.422Z,24.37
2023-06-06T20:07:21.279Z,24.34
2023-06-06T20:09:47.896Z,24.32
2023-06-06T20:12:14.533Z,24.53
2023-06-06T20:14:41.089Z,24.41
2023-06-06T20:17:07.769Z,24.42
2023-06-06T20:19:34.331Z,24.39
2023-06-06T20:22:00.945Z,24.30
2023-06-06T20:24:27.550Z,24.15
2023-06-06T20:26:54.180Z,24.15
2023-06-06T20:29:20.704Z,24.17
2023-06-06T20:31:47.342Z,24.04
2023-06-06T20:34:13.987Z,23.97
2023-06-06T20:36:40.632Z,23.97
2023-06-06T20:39:07.096Z,24.11
2023-06-06T20:41:33.569Z,24.05
2023-06-06T20:44:00.062Z,24.09
2023-06-06T20:46:26.564Z,24.08
2023-06-06T20:48:53.053Z,24.07
2023-06-06T20:51:19.532Z,24.02
2023-06-06T20:53:45.982Z,23.76
2023-06-06T20:56:12.443Z,23.69
2023-06-06T20:58:38.952Z,23.70
2023-06-06T21:01:05.461Z,23.75
2023-06-06T21:03:32.008Z,23.85
2023-06-06T21:05:58.512Z,23.68
2023-06-06T21:08:24.996Z,23.58
2023-06-06T21:10:51.514Z,23.54
2023-06-06T21:13:18.006Z,23.63
2023-06-06T21:15:44.475Z,23.68
2023-06-06T21:18:10.952Z,23.76
2023-06-06T21:20:37.478Z,23.70
2023-06-06T21:23:03.913Z,23.59
2023-06-06T21:25:30.455Z,23.56
2023-06-06T21:27:56.903Z,23.52
2023-06-06T21:30:23.410Z,23.44
2023-06-06T21:32:49.892Z,23.45
2023-06-06T21:35:20.101Z,23.33
2023-06-06T21:37:46.585Z,23.27
2023-06-06T21:40:13.032Z,23.29
2023-06-06T21:42:39.518Z,23.16
2023-06-06T21:45:05.971Z,23.08
2023-06-06T21:47:32.504Z,23.17
2023-06-06T21:49:58.985Z,23.16
2023-06-06T21:52:25.458Z,22.62
2023-06-06T21:54:51.987Z,22.51
2023-06-06T21:57:18.433Z,22.01
2023-06-06T21:59:44.913Z,21.87
2023-06-06T22:02:11.464Z,21.47
2023-06-06T22:04:37.954Z,21.38
2023-06-06T22:07:04.409Z,21.41
2023-06-06T22:09:30.942Z,21.75
2023-06-06T22:11:57.405Z,21.59
2023-06-06T22:14:23.899Z,21.71
2023-06-06T22:16:50.481Z,21.91
2023-06-06T22:19:16.960Z,22.13
2023-06-06T22:21:43.454Z,22.29
2023-06-06T22:24:10.161Z,22.24
2023-06-06T22:26:36.672Z,22.05
2023-06-06T22:29:03.127Z,22.16
2023-06-06T22:31:31.810Z,22.25
2023-06-06T22:33:58.351Z,22.35
2023-06-06T22:36:24.863Z,22.40
2023-06-06T22:38:51.392Z,21.98
2023-06-06T22:41:17.952Z,22.16
2023-06-06T22:43:44.420Z,22.16
2023-06-06T22:46:10.895Z,22.29
2023-06-06T22:48:37.379Z,22.38
2023-06-06T22:51:03.833Z,22.32
2023-06-06T22:53:30.304Z,22.21
2023-06-06T22:55:56.732Z,22.22
2023-06-06T22:58:23.171Z,22.34
2023-06-06T23:00:49.604Z,22.49
2023-06-06T23:03:16.202Z,22.55
2023-06-06T23:05:42.721Z,22.62
2023-06-06T23:08:09.211Z,22.71
2023-06-06T23:10:35.702Z,22.85
2023-06-06T23:13:02.163Z,22.88
2023-06-06T23:15:28.637Z,22.65
2023-06-06T23:17:55.276Z,22.72
2023-06-06T23:20:21.807Z,22.83
2023-06-06T23:22:48.248Z,22.72
2023-06-06T23:25:14.715Z,22.69
2023-06-06T23:27:41.165Z,22.70
2023-06-06T23:30:07.760Z,22.73
2023-06-06T23:32:34.313Z,22.72
2023-06-06T23:35:00.826Z,22.59
2023-06-06T23:37:27.324Z,22.55
2023-06-06T23:39:54.108Z,22.46
2023-06-06T23:42:20.572Z,22.30
2023-06-06T23:44:47.043Z,22.37
2023-06-06T23:47:13.543Z,22.20
2023-06-06T23:49:40.078Z,22.05
2023-06-06T23:52:06.578Z,21.98
2023-06-06T23:54:33.054Z,21.99
2023-06-06T23:56:59.756Z,21.97
2023-06-06T23:59:26.243Z,21.95
